^^
Station Historical Data
Daily Summary for February 21, 2012 Units:  English    Metric   Both
« Previous Day
Next Day »
Daily Weekly Monthly Yearly Custom
  High: Low: Average:
Temperature: 42.5 °F 33.2 °F 38.1 °F
Dew Point: 39.7 °F 29.3 °F 34.5 °F
Humidity: 96% 74% 87%
Wind Speed: 9.0mph 1.0mph 3.9mph
Wind Gust: 22.0mph - -
Wind- - SW
Pressure: 29.92 in 29.68 in -
Precipitation: 0.09 in    
Historical Graphs
 
 
Tabular Data for February 21, 2012
Time Temperature Dew Point Pressure Wind Wind Speed Wind Gust Humidity Rainfall Rate (Hourly)
00:09 36.5 °F 29.3 °F 29.92 in SE 3.0 mph 10.0 mph 75% 0.00 in
00:19 36.6 °F 29.4 °F 29.91 in SE 3.0 mph 7.0 mph 75% 0.00 in
00:29 36.8 °F 29.3 °F 29.90 in SE 3.0 mph 8.0 mph 74% 0.00 in
00:39 36.8 °F 29.3 °F 29.89 in SE 2.0 mph 8.0 mph 74% 0.00 in
00:49 36.9 °F 29.4 °F 29.89 in SE 3.0 mph 9.0 mph 74% 0.00 in
00:59 36.9 °F 29.4 °F 29.88 in SE 2.0 mph 8.0 mph 74% 0.00 in
01:09 36.9 °F 29.4 °F 29.87 in SE 3.0 mph 7.0 mph 74% 0.00 in
01:19 36.9 °F 29.4 °F 29.85 in SE 2.0 mph 7.0 mph 74% 0.00 in
01:29 36.9 °F 29.4 °F 29.85 in SE 5.0 mph 9.0 mph 74% 0.00 in
01:39 36.9 °F 29.4 °F 29.84 in SE 5.0 mph 6.0 mph 74% 0.00 in
01:49 36.9 °F 29.4 °F 29.83 in SE 2.0 mph 8.0 mph 74% 0.00 in
01:59 36.9 °F 29.4 °F 29.82 in SE 2.0 mph 7.0 mph 74% 0.00 in
02:09 37.0 °F 29.5 °F 29.81 in SE 1.0 mph 6.0 mph 74% 0.00 in
02:19 37.0 °F 29.5 °F 29.81 in SSE 2.0 mph 7.0 mph 74% 0.00 in
02:29 37.1 °F 29.6 °F 29.80 in SSE 3.0 mph 8.0 mph 74% 0.00 in
02:39 37.5 °F 30.3 °F 29.80 in South 2.0 mph 14.0 mph 75% 0.00 in
02:49 38.0 °F 30.4 °F 29.78 in South 6.0 mph 13.0 mph 74% 0.00 in
02:59 38.0 °F 31.1 °F 29.78 in SSE 6.0 mph 12.0 mph 76% 0.00 in
03:09 37.9 °F 31.3 °F 29.76 in SSE 1.0 mph 10.0 mph 77% 0.00 in
03:19 37.4 °F 31.2 °F 29.75 in Calm   7.0 mph 78% 0.00 in
03:29 36.7 °F 31.2 °F 29.74 in SSE 1.0 mph 7.0 mph 80% 0.00 in
03:39 36.2 °F 31.8 °F 29.75 in SSE 3.0 mph 7.0 mph 84% 0.00 in
03:49 35.7 °F 32.2 °F 29.74 in South 2.0 mph 9.0 mph 87% 0.00 in
03:59 35.5 °F 32.6 °F 29.73 in South 1.0 mph 9.0 mph 89% 0.00 in
04:09 35.1 °F 32.5 °F 29.73 in Calm   4.0 mph 90% 0.00 in
04:19 34.7 °F 32.3 °F 29.73 in SE 3.0 mph 6.0 mph 91% 0.01 in
04:29 34.3 °F 32.0 °F 29.72 in Calm   5.0 mph 91% 0.00 in
04:39 33.9 °F 31.8 °F 29.72 in Calm   4.0 mph 92% 0.00 in
04:49 33.6 °F 31.5 °F 29.72 in South 1.0 mph 3.0 mph 92% 0.00 in
04:59 33.4 °F 31.6 °F 29.71 in Calm   2.0 mph 93% 0.00 in
05:09 33.3 °F 31.5 °F 29.71 in Calm   4.0 mph 93% 0.00 in
05:19 33.2 °F 31.7 °F 29.70 in Calm   3.0 mph 94% 0.00 in
05:29 33.2 °F 31.7 °F 29.71 in Calm   4.0 mph 94% 0.00 in
05:39 33.2 °F 31.7 °F 29.70 in Calm   3.0 mph 94% 0.00 in
05:49 33.2 °F 31.7 °F 29.70 in South 1.0 mph 4.0 mph 94% 0.00 in
05:59 33.3 °F 31.8 °F 29.70 in Calm   5.0 mph 94% 0.00 in
06:09 33.4 °F 32.1 °F 29.70 in South 1.0 mph 5.0 mph 95% 0.00 in
06:19 33.5 °F 32.2 °F 29.70 in Calm   3.0 mph 95% 0.00 in
06:29 33.5 °F 32.2 °F 29.69 in Calm   1.0 mph 95% 0.00 in
06:39 33.6 °F 32.3 °F 29.69 in Calm   3.0 mph 95% 0.00 in
06:49 33.7 °F 32.4 °F 29.69 in Calm     95% 0.00 in
06:59 33.7 °F 32.4 °F 29.69 in Calm     95% 0.00 in
07:09 33.7 °F 32.4 °F 29.69 in Calm     95% 0.00 in
07:19 33.8 °F 32.5 °F 29.69 in Calm     95% 0.00 in
07:29 34.0 °F 32.7 °F 29.69 in Calm   1.0 mph 95% 0.00 in
07:39 34.3 °F 33.3 °F 29.69 in Calm   3.0 mph 96% 0.00 in
07:49 34.4 °F 33.4 °F 29.69 in Calm   1.0 mph 96% 0.00 in
07:59 34.4 °F 33.4 °F 29.69 in Calm   4.0 mph 96% 0.01 in
08:09 34.4 °F 33.4 °F 29.69 in Calm   2.0 mph 96% 0.00 in
08:19 34.6 °F 33.6 °F 29.69 in Calm   3.0 mph 96% 0.00 in
08:29 34.8 °F 33.7 °F 29.69 in Calm   3.0 mph 96% 0.01 in
08:39 35.0 °F 34.0 °F 29.69 in South 1.0 mph 3.0 mph 96% 0.00 in
08:49 35.2 °F 34.2 °F 29.69 in Calm   3.0 mph 96% 0.01 in
08:59 35.5 °F 34.5 °F 29.68 in South 2.0 mph 4.0 mph 96% 0.00 in
09:09 36.2 °F 35.2 °F 29.69 in South 1.0 mph 4.0 mph 96% 0.01 in
09:19 36.6 °F 35.6 °F 29.69 in SSW 2.0 mph 6.0 mph 96% 0.02 in
09:29 36.9 °F 35.9 °F 29.69 in SSW 2.0 mph 7.0 mph 96% 0.01 in
09:39 37.3 °F 36.3 °F 29.69 in SW 3.0 mph 9.0 mph 96% 0.01 in
09:49 37.7 °F 36.7 °F 29.70 in SW 5.0 mph 10.0 mph 96% 0.00 in
09:59 38.0 °F 37.0 °F 29.69 in SW 5.0 mph 9.0 mph 96% 0.00 in
10:09 38.6 °F 37.6 °F 29.69 in SW 5.0 mph 10.0 mph 96% 0.00 in
10:19 39.3 °F 38.0 °F 29.69 in SW 3.0 mph 12.0 mph 95% 0.00 in
10:29 40.1 °F 38.8 °F 29.69 in WSW 6.0 mph 10.0 mph 95% 0.00 in
10:39 40.7 °F 39.1 °F 29.69 in WSW 8.0 mph 14.0 mph 94% 0.00 in
10:49 41.2 °F 39.3 °F 29.69 in WSW 9.0 mph 17.0 mph 93% 0.00 in
10:59 41.5 °F 39.6 °F 29.69 in WSW 5.0 mph 16.0 mph 93% 0.00 in
11:09 41.6 °F 39.4 °F 29.69 in WSW 9.0 mph 17.0 mph 92% 0.00 in
11:19 41.4 °F 39.2 °F 29.69 in West 7.0 mph 17.0 mph 92% 0.00 in
11:29 41.3 °F 39.2 °F 29.69 in West 7.0 mph 14.0 mph 92% 0.00 in
11:39 41.3 °F 39.2 °F 29.69 in WSW 6.0 mph 14.0 mph 92% 0.00 in
11:49 41.4 °F 39.3 °F 29.68 in SW 6.0 mph 17.0 mph 92% 0.00 in
11:59 41.8 °F 39.6 °F 29.69 in WSW 3.0 mph 12.0 mph 92% 0.00 in
12:09 41.9 °F 39.7 °F 29.69 in SW 3.0 mph 9.0 mph 92% 0.00 in
12:19 41.7 °F 39.5 °F 29.68 in WSW 8.0 mph 17.0 mph 92% 0.00 in
12:29 41.7 °F 39.5 °F 29.69 in WSW 6.0 mph 14.0 mph 92% 0.00 in
12:39 41.6 °F 39.4 °F 29.69 in WSW 9.0 mph 16.0 mph 92% 0.00 in
12:49 41.5 °F 39.4 °F 29.69 in WSW 5.0 mph 12.0 mph 92% 0.00 in
12:59 41.6 °F 39.4 °F 29.69 in WSW 5.0 mph 12.0 mph 92% 0.00 in
13:09 41.8 °F 39.3 °F 29.69 in WSW 6.0 mph 16.0 mph 91% 0.00 in
13:19 41.6 °F 39.4 °F 29.69 in WSW 7.0 mph 18.0 mph 92% 0.00 in
13:29 41.2 °F 39.1 °F 29.70 in WSW 7.0 mph 16.0 mph 92% 0.00 in
13:39 41.0 °F 39.1 °F 29.70 in WSW 7.0 mph 17.0 mph 93% 0.00 in
13:49 40.4 °F 38.3 °F 29.70 in West 8.0 mph 20.0 mph 92% 0.00 in
13:59 39.9 °F 37.8 °F 29.70 in West 8.0 mph 17.0 mph 92% 0.00 in
14:09 39.4 °F 37.3 °F 29.71 in West 8.0 mph 22.0 mph 92% 0.00 in
14:19 39.6 °F 37.2 °F 29.71 in WSW 7.0 mph 17.0 mph 91% 0.00 in
14:29 39.9 °F 36.4 °F 29.71 in West 7.0 mph 22.0 mph 87% 0.00 in
14:39 40.0 °F 35.9 °F 29.72 in West 7.0 mph 20.0 mph 85% 0.00 in
14:49 40.1 °F 36.0 °F 29.72 in West 9.0 mph 15.0 mph 85% 0.00 in
14:59 40.2 °F 35.8 °F 29.72 in West 6.0 mph 17.0 mph 84% 0.00 in
15:09 40.3 °F 35.8 °F 29.73 in West 5.0 mph 14.0 mph 84% 0.00 in
15:19 40.4 °F 36.0 °F 29.73 in West 3.0 mph 16.0 mph 84% 0.00 in
15:29 40.7 °F 36.5 °F 29.73 in WSW 8.0 mph 15.0 mph 85% 0.00 in
15:39 41.0 °F 36.8 °F 29.73 in West 3.0 mph 15.0 mph 85% 0.00 in
15:49 41.3 °F 36.8 °F 29.73 in WSW 7.0 mph 13.0 mph 84% 0.00 in
15:59 41.6 °F 37.1 °F 29.73 in WSW 5.0 mph 12.0 mph 84% 0.00 in
16:09 41.9 °F 37.4 °F 29.74 in WSW 7.0 mph 12.0 mph 84% 0.00 in
16:19 42.2 °F 37.8 °F 29.73 in WSW 2.0 mph 18.0 mph 84% 0.00 in
16:29 42.4 °F 37.9 °F 29.73 in WSW 6.0 mph 9.0 mph 84% 0.00 in
16:39 42.5 °F 37.7 °F 29.74 in WSW 3.0 mph 13.0 mph 83% 0.00 in
16:49 42.5 °F 37.7 °F 29.74 in SW 3.0 mph 9.0 mph 83% 0.00 in
16:59 42.4 °F 37.6 °F 29.74 in SSW 5.0 mph 12.0 mph 83% 0.00 in
17:09 42.3 °F 37.8 °F 29.74 in SW 5.0 mph 6.0 mph 84% 0.00 in
17:19 42.2 °F 37.7 °F 29.75 in SW 2.0 mph 7.0 mph 84% 0.00 in
17:29 42.1 °F 37.6 °F 29.75 in SW 3.0 mph 5.0 mph 84% 0.00 in
17:39 41.9 °F 37.4 °F 29.75 in SW 3.0 mph 7.0 mph 84% 0.00 in
17:49 41.8 °F 37.3 °F 29.75 in SW 3.0 mph 7.0 mph 84% 0.00 in
17:59 41.6 °F 37.1 °F 29.76 in SW 2.0 mph 6.0 mph 84% 0.00 in
18:09 41.6 °F 37.1 °F 29.76 in SW 1.0 mph 8.0 mph 84% 0.00 in
18:19 41.6 °F 37.1 °F 29.76 in WSW 2.0 mph 5.0 mph 84% 0.00 in
18:29 41.5 °F 37.0 °F 29.75 in SW 2.0 mph 5.0 mph 84% 0.00 in
18:39 41.3 °F 36.8 °F 29.75 in SSW 1.0 mph 4.0 mph 84% 0.00 in
18:49 41.0 °F 36.3 °F 29.75 in SW 2.0 mph 4.0 mph 83% 0.00 in
18:59 41.0 °F 35.9 °F 29.75 in SW 1.0 mph 4.0 mph 82% 0.00 in
22:09 40.1 °F 32.8 °F 29.75 in WSW 3.0 mph 9.0 mph 75% 0.00 in
22:19 39.8 °F 32.5 °F 29.75 in WSW 1.0 mph 9.0 mph 75% 0.00 in
22:29 39.3 °F 32.3 °F 29.75 in WSW 1.0 mph 7.0 mph 76% 0.00 in
22:39 38.5 °F 32.3 °F 29.75 in WSW 1.0 mph 5.0 mph 78% 0.00 in
22:49 37.9 °F 32.0 °F 29.75 in West 1.0 mph 8.0 mph 79% 0.00 in
22:59 37.5 °F 31.9 °F 29.75 in West 1.0 mph 8.0 mph 80% 0.00 in
23:09 36.9 °F 31.6 °F 29.75 in Calm   3.0 mph 81% 0.00 in
23:19 36.6 °F 31.6 °F 29.75 in WSW 1.0 mph 7.0 mph 82% 0.00 in
23:29 36.5 °F 31.5 °F 29.75 in WSW 1.0 mph 4.0 mph 82% 0.00 in
23:39 36.5 °F 31.5 °F 29.75 in SW 1.0 mph 4.0 mph 82% 0.00 in
23:49 36.1 °F 31.4 °F 29.75 in Calm   3.0 mph 83% 0.00 in
23:59 35.7 °F 31.3 °F 29.75 in Calm   3.0 mph 84% 0.00 in
jolietwx - Weather
Compliments of Weather Underground